sensor_id;sensor_type;location;lat;lon;timestamp;pressure;altitude;pressure_sealevel;temperature
11926;BMP180;6022;48.768;18.608;2023-01-10T00:02:11;97225.56;;;6.86
11926;BMP180;6022;48.768;18.608;2023-01-10T00:04:38;97214.78;;;6.84
11926;BMP180;6022;48.768;18.608;2023-01-10T00:07:06;97214.56;;;6.87
11926;BMP180;6022;48.768;18.608;2023-01-10T00:09:33;97217.88;;;6.87
11926;BMP180;6022;48.768;18.608;2023-01-10T00:12:00;97203.91;;;6.83
11926;BMP180;6022;48.768;18.608;2023-01-10T00:14:45;97213.28;;;6.81
11926;BMP180;6022;48.768;18.608;2023-01-10T00:17:12;97219.22;;;6.80
11926;BMP180;6022;48.768;18.608;2023-01-10T00:19:39;97220.94;;;6.80
11926;BMP180;6022;48.768;18.608;2023-01-10T00:22:06;97214.38;;;6.78
11926;BMP180;6022;48.768;18.608;2023-01-10T00:24:34;97214.38;;;6.78
11926;BMP180;6022;48.768;18.608;2023-01-10T00:27:03;97223.44;;;6.80
11926;BMP180;6022;48.768;18.608;2023-01-10T00:29:30;97216.19;;;6.76
11926;BMP180;6022;48.768;18.608;2023-01-10T00:31:57;97214.38;;;6.78
11926;BMP180;6022;48.768;18.608;2023-01-10T00:34:24;97228.59;;;6.78
11926;BMP180;6022;48.768;18.608;2023-01-10T00:36:52;97217.81;;;6.77
11926;BMP180;6022;48.768;18.608;2023-01-10T00:39:19;97223.88;;;6.74
11926;BMP180;6022;48.768;18.608;2023-01-10T00:41:47;97227.28;;;6.73
11926;BMP180;6022;48.768;18.608;2023-01-10T00:44:32;97229.91;;;6.72
11926;BMP180;6022;48.768;18.608;2023-01-10T00:46:59;97234.22;;;6.70
11926;BMP180;6022;48.768;18.608;2023-01-10T00:49:27;97246.03;;;6.69
11926;BMP180;6022;48.768;18.608;2023-01-10T00:51:54;97254.50;;;6.68
11926;BMP180;6022;48.768;18.608;2023-01-10T00:54:24;97258.13;;;6.64
11926;BMP180;6022;48.768;18.608;2023-01-10T00:56:51;97263.16;;;6.64
11926;BMP180;6022;48.768;18.608;2023-01-10T00:59:18;97264.16;;;6.62
11926;BMP180;6022;48.768;18.608;2023-01-10T01:01:46;97260.44;;;6.55
11926;BMP180;6022;48.768;18.608;2023-01-10T01:04:13;97265.59;;;6.53
11926;BMP180;6022;48.768;18.608;2023-01-10T01:06:46;97276.47;;;6.54
11926;BMP180;6022;48.768;18.608;2023-01-10T01:09:14;97276.66;;;6.51
11926;BMP180;6022;48.768;18.608;2023-01-10T01:11:41;97277.75;;;6.47
11926;BMP180;6022;48.768;18.608;2023-01-10T01:14:09;97282.09;;;6.45
11926;BMP180;6022;48.768;18.608;2023-01-10T01:16:36;97283.03;;;6.44
11926;BMP180;6022;48.768;18.608;2023-01-10T01:19:03;97286.44;;;6.43
11926;BMP180;6022;48.768;18.608;2023-01-10T01:21:30;97288.94;;;6.43
11926;BMP180;6022;48.768;18.608;2023-01-10T01:23:57;97285.81;;;6.39
11926;BMP180;6022;48.768;18.608;2023-01-10T01:26:25;97300.84;;;6.41
11926;BMP180;6022;48.768;18.608;2023-01-10T01:28:52;97309.50;;;6.37
11926;BMP180;6022;48.768;18.608;2023-01-10T01:31:20;97309.69;;;6.34
11926;BMP180;6022;48.768;18.608;2023-01-10T01:33:47;97311.47;;;6.32
11926;BMP180;6022;48.768;18.608;2023-01-10T01:36:14;97319.97;;;6.31
11926;BMP180;6022;48.768;18.608;2023-01-10T01:38:41;97319.03;;;6.32
11926;BMP180;6022;48.768;18.608;2023-01-10T01:41:09;97318.53;;;6.27
11926;BMP180;6022;48.768;18.608;2023-01-10T01:44:14;97328.41;;;6.30
11926;BMP180;6022;48.768;18.608;2023-01-10T01:46:49;97326.09;;;6.27
11926;BMP180;6022;48.768;18.608;2023-01-10T01:49:23;97323.34;;;6.18
11926;BMP180;6022;48.768;18.608;2023-01-10T01:51:58;97314.19;;;6.17
11926;BMP180;6022;48.768;18.608;2023-01-10T01:54:30;97314.25;;;6.15
11926;BMP180;6022;48.768;18.608;2023-01-10T01:57:06;97316.59;;;6.18
11926;BMP180;6022;48.768;18.608;2023-01-10T01:59:41;97326.84;;;6.15
11926;BMP180;6022;48.768;18.608;2023-01-10T02:02:36;97337.31;;;6.09
11926;BMP180;6022;48.768;18.608;2023-01-10T02:05:09;97331.00;;;6.16
11926;BMP180;6022;48.768;18.608;2023-01-10T02:07:42;97334.72;;;6.11
11926;BMP180;6022;48.768;18.608;2023-01-10T02:10:22;97335.59;;;6.10
11926;BMP180;6022;48.768;18.608;2023-01-10T02:12:53;97338.31;;;6.07
11926;BMP180;6022;48.768;18.608;2023-01-10T02:15:21;97338.59;;;6.02
11926;BMP180;6022;48.768;18.608;2023-01-10T02:17:51;97356.22;;;6.02
11926;BMP180;6022;48.768;18.608;2023-01-10T02:20:21;97338.81;;;6.00
11926;BMP180;6022;48.768;18.608;2023-01-10T02:23:30;97347.25;;;5.99
11926;BMP180;6022;48.768;18.608;2023-01-10T02:32:11;97357.50;;;5.96
11926;BMP180;6022;48.768;18.608;2023-01-10T02:37:53;97367.75;;;5.93
11926;BMP180;6022;48.768;18.608;2023-01-10T02:43:19;97361.91;;;5.92
11926;BMP180;6022;48.768;18.608;2023-01-10T02:45:58;97363.72;;;5.90
11926;BMP180;6022;48.768;18.608;2023-01-10T02:48:25;97360.59;;;5.87
11926;BMP180;6022;48.768;18.608;2023-01-10T02:51:03;97369.75;;;5.88
11926;BMP180;6022;48.768;18.608;2023-01-10T02:53:39;97364.53;;;5.91
11926;BMP180;6022;48.768;18.608;2023-01-10T02:56:42;97376.47;;;5.87
11926;BMP180;6022;48.768;18.608;2023-01-10T03:08:42;97390.25;;;5.82
11926;BMP180;6022;48.768;18.608;2023-01-10T03:11:14;97384.63;;;5.78
11926;BMP180;6022;48.768;18.608;2023-01-10T03:13:58;97377.16;;;5.77
11926;BMP180;6022;48.768;18.608;2023-01-10T03:16:31;97383.06;;;5.76
11926;BMP180;6022;48.768;18.608;2023-01-10T03:19:08;97385.78;;;5.73
11926;BMP180;6022;48.768;18.608;2023-01-10T03:21:39;97394.06;;;5.75
11926;BMP180;6022;48.768;18.608;2023-01-10T03:24:33;97379.84;;;5.74
11926;BMP180;6022;48.768;18.608;2023-01-10T03:30:04;97381.56;;;5.73
11926;BMP180;6022;48.768;18.608;2023-01-10T03:32:32;97384.13;;;5.72
11926;BMP180;6022;48.768;18.608;2023-01-10T03:35:01;97376.53;;;5.73
11926;BMP180;6022;48.768;18.608;2023-01-10T03:37:53;97386.66;;;5.72
11926;BMP180;6022;48.768;18.608;2023-01-10T03:41:02;97384.41;;;5.67
11926;BMP180;6022;48.768;18.608;2023-01-10T03:44:14;97395.09;;;5.71
11926;BMP180;6022;48.768;18.608;2023-01-10T03:47:34;97406.06;;;5.70
11926;BMP180;6022;48.768;18.608;2023-01-10T03:50:23;97411.09;;;5.70
11926;BMP180;6022;48.768;18.608;2023-01-10T03:52:51;97405.91;;;5.73
11926;BMP180;6022;48.768;18.608;2023-01-10T03:55:23;97415.97;;;5.73
11926;BMP180;6022;48.768;18.608;2023-01-10T03:57:51;97420.34;;;5.69
11926;BMP180;6022;48.768;18.608;2023-01-10T04:00:19;97417.84;;;5.69
11926;BMP180;6022;48.768;18.608;2023-01-10T04:02:46;97426.03;;;5.73
11926;BMP180;6022;48.768;18.608;2023-01-10T04:05:16;97429.63;;;5.69
11926;BMP180;6022;48.768;18.608;2023-01-10T04:07:43;97431.22;;;5.70
11926;BMP180;6022;48.768;18.608;2023-01-10T04:10:10;97443.00;;;5.69
11926;BMP180;6022;48.768;18.608;2023-01-10T04:12:37;97445.25;;;5.74
11926;BMP180;6022;48.768;18.608;2023-01-10T04:15:06;97449.72;;;5.69
11926;BMP180;6022;48.768;18.608;2023-01-10T04:17:39;97448.47;;;5.62
11926;BMP180;6022;48.768;18.608;2023-01-10T04:20:10;97461.75;;;5.64
11926;BMP180;6022;48.768;18.608;2023-01-10T04:22:37;97460.75;;;5.66
11926;BMP180;6022;48.768;18.608;2023-01-10T04:25:05;97471.63;;;5.67
11926;BMP180;6022;48.768;18.608;2023-01-10T04:27:32;97473.25;;;5.68
11926;BMP180;6022;48.768;18.608;2023-01-10T04:29:59;97469.41;;;5.63
11926;BMP180;6022;48.768;18.608;2023-01-10T04:32:26;97476.84;;;5.64
11926;BMP180;6022;48.768;18.608;2023-01-10T04:34:54;97476.84;;;5.64
11926;BMP180;6022;48.768;18.608;2023-01-10T04:37:21;97481.88;;;5.64
11926;BMP180;6022;48.768;18.608;2023-01-10T04:39:48;97475.41;;;5.60
11926;BMP180;6022;48.768;18.608;2023-01-10T04:42:17;97480.44;;;5.60
11926;BMP180;6022;48.768;18.608;2023-01-10T04:44:45;97486.38;;;5.59
11926;BMP180;6022;48.768;18.608;2023-01-10T04:47:12;97495.53;;;5.60
11926;BMP180;6022;48.768;18.608;2023-01-10T04:49:39;97499.56;;;5.63
11926;BMP180;6022;48.768;18.608;2023-01-10T04:52:06;97495.63;;;5.59
11926;BMP180;6022;48.768;18.608;2023-01-10T04:54:36;97508.03;;;5.62
11926;BMP180;6022;48.768;18.608;2023-01-10T04:57:03;97500.94;;;5.54
11926;BMP180;6022;48.768;18.608;2023-01-10T04:59:33;97509.19;;;5.56
11926;BMP180;6022;48.768;18.608;2023-01-10T05:02:00;97516.09;;;5.53
11926;BMP180;6022;48.768;18.608;2023-01-10T05:04:28;97516.91;;;5.53
11926;BMP180;6022;48.768;18.608;2023-01-10T05:06:57;97521.84;;;5.55
11926;BMP180;6022;48.768;18.608;2023-01-10T05:09:24;97518.63;;;5.53
11926;BMP180;6022;48.768;18.608;2023-01-10T05:11:51;97525.09;;;5.57
11926;BMP180;6022;48.768;18.608;2023-01-10T05:14:19;97521.22;;;5.51
11926;BMP180;6022;48.768;18.608;2023-01-10T05:16:46;97521.94;;;5.53
11926;BMP180;6022;48.768;18.608;2023-01-10T05:19:13;97533.63;;;5.54
11926;BMP180;6022;48.768;18.608;2023-01-10T05:21:40;97522.22;;;5.49
11926;BMP180;6022;48.768;18.608;2023-01-10T05:24:08;97538.91;;;5.50
11926;BMP180;6022;48.768;18.608;2023-01-10T05:26:35;97539.69;;;5.50
11926;BMP180;6022;48.768;18.608;2023-01-10T05:29:02;97536.16;;;5.54
11926;BMP180;6022;48.768;18.608;2023-01-10T05:31:29;97541.97;;;5.55
11926;BMP180;6022;48.768;18.608;2023-01-10T05:33:57;97538.09;;;5.49
11926;BMP180;6022;48.768;18.608;2023-01-10T05:36:24;97526.53;;;5.47
11926;BMP180;6022;48.768;18.608;2023-01-10T05:38:51;97530.56;;;5.49
11926;BMP180;6022;48.768;18.608;2023-01-10T05:41:18;97529.03;;;5.47
11926;BMP180;6022;48.768;18.608;2023-01-10T05:43:45;97523.16;;;5.46
11926;BMP180;6022;48.768;18.608;2023-01-10T05:46:13;97530.81;;;5.45
11926;BMP180;6022;48.768;18.608;2023-01-10T05:48:40;97529.19;;;5.44
11926;BMP180;6022;48.768;18.608;2023-01-10T05:51:07;97539.97;;;5.46
11926;BMP180;6022;48.768;18.608;2023-01-10T05:53:34;97543.47;;;5.43
11926;BMP180;6022;48.768;18.608;2023-01-10T05:56:02;97546.00;;;5.43
11926;BMP180;6022;48.768;18.608;2023-01-10T05:58:29;97548.50;;;5.43
11926;BMP180;6022;48.768;18.608;2023-01-10T06:00:57;97558.72;;;5.40
11926;BMP180;6022;48.768;18.608;2023-01-10T06:03:26;97559.53;;;5.41
11926;BMP180;6022;48.768;18.608;2023-01-10T06:05:54;97567.06;;;5.41
11926;BMP180;6022;48.768;18.608;2023-01-10T06:08:22;97564.31;;;5.45
11926;BMP180;6022;48.768;18.608;2023-01-10T06:10:50;97562.16;;;5.39
11926;BMP180;6022;48.768;18.608;2023-01-10T06:13:17;97558.94;;;5.37
11926;BMP180;6022;48.768;18.608;2023-01-10T06:15:45;97563.94;;;5.37
11926;BMP180;6022;48.768;18.608;2023-01-10T06:18:12;97580.91;;;5.34
11926;BMP180;6022;48.768;18.608;2023-01-10T06:20:42;97584.31;;;5.33
11926;BMP180;6022;48.768;18.608;2023-01-10T06:23:10;97587.66;;;5.33
11926;BMP180;6022;48.768;18.608;2023-01-10T06:25:38;97581.72;;;5.34
11926;BMP180;6022;48.768;18.608;2023-01-10T06:28:10;97601.75;;;5.36
11926;BMP180;6022;48.768;18.608;2023-01-10T06:30:41;97598.44;;;5.35
11926;BMP180;6022;48.768;18.608;2023-01-10T06:33:10;97603.63;;;5.32
11926;BMP180;6022;48.768;18.608;2023-01-10T06:35:41;97619.44;;;5.34
11926;BMP180;6022;48.768;18.608;2023-01-10T06:38:09;97617.72;;;5.35
11926;BMP180;6022;48.768;18.608;2023-01-10T06:40:36;97621.84;;;5.36
11926;BMP180;6022;48.768;18.608;2023-01-10T06:43:04;97632.72;;;5.36
11926;BMP180;6022;48.768;18.608;2023-01-10T06:45:31;97635.31;;;5.35
11926;BMP180;6022;48.768;18.608;2023-01-10T06:47:59;97635.22;;;5.36
11926;BMP180;6022;48.768;18.608;2023-01-10T06:50:27;97638.47;;;5.38
11926;BMP180;6022;48.768;18.608;2023-01-10T06:53:03;97639.28;;;5.39
11926;BMP180;6022;48.768;18.608;2023-01-10T06:55:31;97641.78;;;5.39
11926;BMP180;6022;48.768;18.608;2023-01-10T06:58:02;97646.00;;;5.38
11926;BMP180;6022;48.768;18.608;2023-01-10T07:00:30;97635.16;;;5.38
11926;BMP180;6022;48.768;18.608;2023-01-10T07:02:59;97643.56;;;5.37
11926;BMP180;6022;48.768;18.608;2023-01-10T07:05:27;97637.75;;;5.36
11926;BMP180;6022;48.768;18.608;2023-01-10T07:07:55;97642.69;;;5.38
11926;BMP180;6022;48.768;18.608;2023-01-10T07:10:24;97651.03;;;5.38
11926;BMP180;6022;48.768;18.608;2023-01-10T07:12:54;97665.25;;;5.39
11926;BMP180;6022;48.768;18.608;2023-01-10T07:15:21;97667.03;;;5.37
11926;BMP180;6022;48.768;18.608;2023-01-10T07:17:49;97677.81;;;5.39
11926;BMP180;6022;48.768;18.608;2023-01-10T07:20:17;97686.09;;;5.41
11926;BMP180;6022;48.768;18.608;2023-01-10T07:22:53;97691.03;;;5.43
11926;BMP180;6022;48.768;18.608;2023-01-10T07:25:21;97685.91;;;5.44
11926;BMP180;6022;48.768;18.608;2023-01-10T07:27:49;97675.78;;;5.46
11926;BMP180;6022;48.768;18.608;2023-01-10T07:30:16;97683.31;;;5.46
11926;BMP180;6022;48.768;18.608;2023-01-10T07:32:43;97700.84;;;5.47
11926;BMP180;6022;48.768;18.608;2023-01-10T07:35:10;97713.34;;;5.49
11926;BMP180;6022;48.768;18.608;2023-01-10T07:37:37;97723.56;;;5.46
11926;BMP180;6022;48.768;18.608;2023-01-10T07:40:05;97717.72;;;5.45
11926;BMP180;6022;48.768;18.608;2023-01-10T07:42:35;97723.47;;;5.47
11926;BMP180;6022;48.768;18.608;2023-01-10T07:45:03;97741.06;;;5.47
11926;BMP180;6022;48.768;18.608;2023-01-10T07:47:33;97740.16;;;5.48
11926;BMP180;6022;48.768;18.608;2023-01-10T07:50:00;97740.91;;;5.50
11926;BMP180;6022;48.768;18.608;2023-01-10T07:52:27;97755.09;;;5.51
11926;BMP180;6022;48.768;18.608;2023-01-10T07:55:05;97767.69;;;5.51
11926;BMP180;6022;48.768;18.608;2023-01-10T07:57:32;97767.84;;;5.48
11926;BMP180;6022;48.768;18.608;2023-01-10T08:00:04;97770.44;;;5.47
11926;BMP180;6022;48.768;18.608;2023-01-10T08:02:31;97776.44;;;5.44
11926;BMP180;6022;48.768;18.608;2023-01-10T08:04:58;97778.00;;;5.47
11926;BMP180;6022;48.768;18.608;2023-01-10T08:07:28;97783.84;;;5.47
11926;BMP180;6022;48.768;18.608;2023-01-10T08:09:55;97791.53;;;5.44
11926;BMP180;6022;48.768;18.608;2023-01-10T08:12:23;97808.25;;;5.45
11926;BMP180;6022;48.768;18.608;2023-01-10T08:15:11;97802.31;;;5.46
11926;BMP180;6022;48.768;18.608;2023-01-10T08:17:38;97815.72;;;5.47
11926;BMP180;6022;48.768;18.608;2023-01-10T08:20:06;97811.50;;;5.47
11926;BMP180;6022;48.768;18.608;2023-01-10T08:22:33;97826.25;;;5.53
11926;BMP180;6022;48.768;18.608;2023-01-10T08:25:01;97834.72;;;5.52
11926;BMP180;6022;48.768;18.608;2023-01-10T08:27:28;97833.06;;;5.51
11926;BMP180;6022;48.768;18.608;2023-01-10T08:29:55;97844.13;;;5.49
11926;BMP180;6022;48.768;18.608;2023-01-10T08:32:23;97849.16;;;5.49
11926;BMP180;6022;48.768;18.608;2023-01-10T08:34:50;97855.84;;;5.48
11926;BMP180;6022;48.768;18.608;2023-01-10T08:37:20;97856.69;;;5.49
11926;BMP180;6022;48.768;18.608;2023-01-10T08:39:47;97864.25;;;5.49
11926;BMP180;6022;48.768;18.608;2023-01-10T08:42:14;97874.19;;;5.50
11926;BMP180;6022;48.768;18.608;2023-01-10T08:44:42;97874.03;;;5.53
11926;BMP180;6022;48.768;18.608;2023-01-10T08:47:10;97883.22;;;5.54
11926;BMP180;6022;48.768;18.608;2023-01-10T08:49:38;97888.88;;;5.58
11926;BMP180;6022;48.768;18.608;2023-01-10T08:52:05;97887.94;;;5.60
11926;BMP180;6022;48.768;18.608;2023-01-10T08:54:33;97894.44;;;5.64
11926;BMP180;6022;48.768;18.608;2023-01-10T08:57:00;97905.28;;;5.64
11926;BMP180;6022;48.768;18.608;2023-01-10T08:59:28;97917.16;;;5.63
11926;BMP180;6022;48.768;18.608;2023-01-10T09:01:55;97922.84;;;5.66
11926;BMP180;6022;48.768;18.608;2023-01-10T09:04:25;97924.63;;;5.64
11926;BMP180;6022;48.768;18.608;2023-01-10T09:06:55;97938.06;;;5.63
11926;BMP180;6022;48.768;18.608;2023-01-10T09:09:22;97948.31;;;5.60
11926;BMP180;6022;48.768;18.608;2023-01-10T09:11:49;97961.63;;;5.62
11926;BMP180;6022;48.768;18.608;2023-01-10T09:14:16;97963.22;;;5.63
11926;BMP180;6022;48.768;18.608;2023-01-10T09:16:43;97970.03;;;5.61
11926;BMP180;6022;48.768;18.608;2023-01-10T09:19:12;97975.81;;;5.63
11926;BMP180;6022;48.768;18.608;2023-01-10T09:21:39;97979.97;;;5.64
11926;BMP180;6022;48.768;18.608;2023-01-10T09:24:06;97981.75;;;5.62
11926;BMP180;6022;48.768;18.608;2023-01-10T09:26:33;97989.38;;;5.61
11926;BMP180;6022;48.768;18.608;2023-01-10T09:29:01;98003.78;;;5.57
11926;BMP180;6022;48.768;18.608;2023-01-10T09:31:28;97997.81;;;5.60
11926;BMP180;6022;48.768;18.608;2023-01-10T09:33:55;98003.66;;;5.60
11926;BMP180;6022;48.768;18.608;2023-01-10T09:36:22;98011.13;;;5.62
11926;BMP180;6022;48.768;18.608;2023-01-10T09:38:49;98002.75;;;5.61
11926;BMP180;6022;48.768;18.608;2023-01-10T09:49:39;98015.56;;;5.57
11926;BMP180;6022;48.768;18.608;2023-01-10T09:52:41;98033.91;;;5.59
11926;BMP180;6022;48.768;18.608;2023-01-10T09:55:31;98031.47;;;5.57
11926;BMP180;6022;48.768;18.608;2023-01-10T09:58:23;98038.72;;;5.63
11926;BMP180;6022;48.768;18.608;2023-01-10T10:00:58;98041.97;;;5.65
11926;BMP180;6022;48.768;18.608;2023-01-10T10:06:17;98042.56;;;5.70
11926;BMP180;6022;48.768;18.608;2023-01-10T10:08:46;98041.69;;;5.71
11926;BMP180;6022;48.768;18.608;2023-01-10T10:17:24;98038.03;;;5.76
11926;BMP180;6022;48.768;18.608;2023-01-10T10:26:16;98045.44;;;5.79
11926;BMP180;6022;48.768;18.608;2023-01-10T10:35:37;98050.84;;;5.89
11926;BMP180;6022;48.768;18.608;2023-01-10T10:38:18;98053.28;;;5.90
11926;BMP180;6022;48.768;18.608;2023-01-10T10:40:49;98057.25;;;5.94
11926;BMP180;6022;48.768;18.608;2023-01-10T10:43:20;98053.22;;;5.92
11926;BMP180;6022;48.768;18.608;2023-01-10T10:45:59;98070.66;;;5.95
11926;BMP180;6022;48.768;18.608;2023-01-10T10:51:22;98079.53;;;6.02
11926;BMP180;6022;48.768;18.608;2023-01-10T10:53:49;98075.31;;;6.02
11926;BMP180;6022;48.768;18.608;2023-01-10T10:56:22;98070.94;;;6.05
11926;BMP180;6022;48.768;18.608;2023-01-10T10:58:54;98085.22;;;6.05
11926;BMP180;6022;48.768;18.608;2023-01-10T11:01:22;98079.94;;;6.09
11926;BMP180;6022;48.768;18.608;2023-01-10T11:04:07;98080.53;;;6.14
11926;BMP180;6022;48.768;18.608;2023-01-10T11:06:37;98086.31;;;6.16
11926;BMP180;6022;48.768;18.608;2023-01-10T11:09:07;98082.31;;;6.12
11926;BMP180;6022;48.768;18.608;2023-01-10T11:11:42;98085.31;;;6.19
11926;BMP180;6022;48.768;18.608;2023-01-10T11:14:11;98087.09;;;6.17
11926;BMP180;6022;48.768;18.608;2023-01-10T11:16:42;98087.84;;;6.19
11926;BMP180;6022;48.768;18.608;2023-01-10T11:19:22;98087.78;;;6.20
11926;BMP180;6022;48.768;18.608;2023-01-10T11:26:55;98091.13;;;6.36
11926;BMP180;6022;48.768;18.608;2023-01-10T11:29:37;98088.44;;;6.39
11926;BMP180;6022;48.768;18.608;2023-01-10T11:32:36;98080.16;;;6.52
11926;BMP180;6022;48.768;18.608;2023-01-10T11:35:16;98085.53;;;6.62
11926;BMP180;6022;48.768;18.608;2023-01-10T11:38:01;98090.75;;;6.74
11926;BMP180;6022;48.768;18.608;2023-01-10T11:40:34;98099.50;;;6.82
11926;BMP180;6022;48.768;18.608;2023-01-10T11:43:36;98101.38;;;6.94
11926;BMP180;6022;48.768;18.608;2023-01-10T11:49:14;98096.13;;;6.83
11926;BMP180;6022;48.768;18.608;2023-01-10T11:51:55;98105.13;;;6.87
11926;BMP180;6022;48.768;18.608;2023-01-10T11:54:26;98101.47;;;6.93
11926;BMP180;6022;48.768;18.608;2023-01-10T11:57:03;98103.75;;;6.97
11926;BMP180;6022;48.768;18.608;2023-01-10T11:59:33;98100.47;;;6.95
11926;BMP180;6022;48.768;18.608;2023-01-10T12:04:54;98090.72;;;6.89
11926;BMP180;6022;48.768;18.608;2023-01-10T12:07:22;98093.00;;;6.94
11926;BMP180;6022;48.768;18.608;2023-01-10T12:10:00;98088.13;;;6.91
11926;BMP180;6022;48.768;18.608;2023-01-10T12:12:32;98084.47;;;6.96
11926;BMP180;6022;48.768;18.608;2023-01-10T12:15:30;98089.28;;;6.85
11926;BMP180;6022;48.768;18.608;2023-01-10T12:18:01;98093.16;;;6.76
11926;BMP180;6022;48.768;18.608;2023-01-10T12:20:47;98104.16;;;6.75
11926;BMP180;6022;48.768;18.608;2023-01-10T12:23:21;98121.06;;;6.73
11926;BMP180;6022;48.768;18.608;2023-01-10T12:25:51;98138.53;;;6.76
11926;BMP180;6022;48.768;18.608;2023-01-10T12:28:38;98142.94;;;6.72
11926;BMP180;6022;48.768;18.608;2023-01-10T12:31:13;98143.75;;;6.73
11926;BMP180;6022;48.768;18.608;2023-01-10T12:33:52;98142.63;;;6.78
11926;BMP180;6022;48.768;18.608;2023-01-10T12:39:31;98135.78;;;6.80
11926;BMP180;6022;48.768;18.608;2023-01-10T12:42:23;98148.31;;;6.81
11926;BMP180;6022;48.768;18.608;2023-01-10T12:45:25;98128.69;;;6.86
11926;BMP180;6022;48.768;18.608;2023-01-10T12:50:50;98148.00;;;6.87
11926;BMP180;6022;48.768;18.608;2023-01-10T12:54:03;98156.75;;;6.80
11926;BMP180;6022;48.768;18.608;2023-01-10T12:56:31;98152.63;;;6.79
11926;BMP180;6022;48.768;18.608;2023-01-10T12:59:15;98145.88;;;6.80
11926;BMP180;6022;48.768;18.608;2023-01-10T13:01:59;98155.88;;;6.81
11926;BMP180;6022;48.768;18.608;2023-01-10T13:04:31;98175.13;;;6.82
11926;BMP180;6022;48.768;18.608;2023-01-10T13:07:00;98172.94;;;6.77
11926;BMP180;6022;48.768;18.608;2023-01-10T13:09:29;98176.19;;;6.78
11926;BMP180;6022;48.768;18.608;2023-01-10T13:14:47;98174.72;;;6.75
11926;BMP180;6022;48.768;18.608;2023-01-10T13:22:50;98177.31;;;6.73
11926;BMP180;6022;48.768;18.608;2023-01-10T13:25:28;98179.78;;;6.75
11926;BMP180;6022;48.768;18.608;2023-01-10T13:28:17;98176.34;;;6.76
11926;BMP180;6022;48.768;18.608;2023-01-10T13:30:53;98178.88;;;6.76
11926;BMP180;6022;48.768;18.608;2023-01-10T13:33:51;98189.94;;;6.73
11926;BMP180;6022;48.768;18.608;2023-01-10T13:36:27;98189.13;;;6.73
11926;BMP180;6022;48.768;18.608;2023-01-10T13:39:05;98187.59;;;6.70
11926;BMP180;6022;48.768;18.608;2023-01-10T13:50:55;98219.78;;;6.48
11926;BMP180;6022;48.768;18.608;2023-01-10T13:55:59;98235.03;;;6.45
11926;BMP180;6022;48.768;18.608;2023-01-10T13:58:41;98235.16;;;6.44
11926;BMP180;6022;48.768;18.608;2023-01-10T14:01:35;98243.59;;;6.43
11926;BMP180;6022;48.768;18.608;2023-01-10T14:04:39;98245.22;;;6.44
11926;BMP180;6022;48.768;18.608;2023-01-10T14:07:32;98242.19;;;6.38
11926;BMP180;6022;48.768;18.608;2023-01-10T14:10:06;98245.44;;;6.39
11926;BMP180;6022;48.768;18.608;2023-01-10T14:13:00;98236.09;;;6.41
11926;BMP180;6022;48.768;18.608;2023-01-10T14:15:43;98236.16;;;6.40
11926;BMP180;6022;48.768;18.608;2023-01-10T14:18:35;98231.44;;;6.34
11926;BMP180;6022;48.768;18.608;2023-01-10T14:21:21;98234.69;;;6.36
11926;BMP180;6022;48.768;18.608;2023-01-10T14:23:52;98235.34;;;6.39
11926;BMP180;6022;48.768;18.608;2023-01-10T14:26:36;98242.25;;;6.36
11926;BMP180;6022;48.768;18.608;2023-01-10T14:29:13;98243.97;;;6.36
11926;BMP180;6022;48.768;18.608;2023-01-10T14:31:48;98245.59;;;6.37
11926;BMP180;6022;48.768;18.608;2023-01-10T14:34:26;98245.88;;;6.31
11926;BMP180;6022;48.768;18.608;2023-01-10T14:37:07;98253.59;;;6.28
11926;BMP180;6022;48.768;18.608;2023-01-10T14:39:35;98250.28;;;6.27
11926;BMP180;6022;48.768;18.608;2023-01-10T14:42:13;98251.16;;;6.26
11926;BMP180;6022;48.768;18.608;2023-01-10T14:45:12;98262.41;;;6.19
11926;BMP180;6022;48.768;18.608;2023-01-10T14:47:34;98280.34;;;6.13
11926;BMP180;6022;48.768;18.608;2023-01-10T14:50:02;98277.88;;;6.12
11926;BMP180;6022;48.768;18.608;2023-01-10T14:52:31;98277.06;;;6.11
11926;BMP180;6022;48.768;18.608;2023-01-10T14:55:18;98284.50;;;6.14
11926;BMP180;6022;48.768;18.608;2023-01-10T14:57:58;98277.97;;;6.10
11926;BMP180;6022;48.768;18.608;2023-01-10T15:00:32;98286.41;;;6.09
11926;BMP180;6022;48.768;18.608;2023-01-10T15:03:01;98285.66;;;6.07
11926;BMP180;6022;48.768;18.608;2023-01-10T15:05:36;98292.41;;;6.07
11926;BMP180;6022;48.768;18.608;2023-01-10T15:08:34;98291.88;;;6.01
11926;BMP180;6022;48.768;18.608;2023-01-10T15:11:04;98301.81;;;6.03
11926;BMP180;6022;48.768;18.608;2023-01-10T15:14:02;98302.78;;;6.01
11926;BMP180;6022;48.768;18.608;2023-01-10T15:16:31;98313.88;;;5.97
11926;BMP180;6022;48.768;18.608;2023-01-10T15:19:00;98319.00;;;5.96
11926;BMP180;6022;48.768;18.608;2023-01-10T15:21:27;98326.59;;;5.94
11926;BMP180;6022;48.768;18.608;2023-01-10T15:23:55;98326.72;;;5.91
11926;BMP180;6022;48.768;18.608;2023-01-10T15:26:29;98324.31;;;5.90
11926;BMP180;6022;48.768;18.608;2023-01-10T15:29:25;98335.69;;;5.97
11926;BMP180;6022;48.768;18.608;2023-01-10T15:32:05;98350.81;;;5.97
11926;BMP180;6022;48.768;18.608;2023-01-10T15:34:35;98357.56;;;5.96
11926;BMP180;6022;48.768;18.608;2023-01-10T15:37:06;98359.25;;;5.96
11926;BMP180;6022;48.768;18.608;2023-01-10T15:39:46;98361.03;;;5.94
11926;BMP180;6022;48.768;18.608;2023-01-10T15:42:14;98363.75;;;5.89
11926;BMP180;6022;48.768;18.608;2023-01-10T15:44:49;98378.03;;;5.89
11926;BMP180;6022;48.768;18.608;2023-01-10T15:50:30;98387.44;;;5.85
11926;BMP180;6022;48.768;18.608;2023-01-10T15:53:06;98399.22;;;5.85
11926;BMP180;6022;48.768;18.608;2023-01-10T15:55:43;98403.22;;;5.89
11926;BMP180;6022;48.768;18.608;2023-01-10T15:58:18;98408.31;;;5.87
11926;BMP180;6022;48.768;18.608;2023-01-10T16:00:51;98400.81;;;5.86
11926;BMP180;6022;48.768;18.608;2023-01-10T16:05:59;98412.59;;;5.85
11926;BMP180;6022;48.768;18.608;2023-01-10T16:08:32;98407.63;;;5.84
11926;BMP180;6022;48.768;18.608;2023-01-10T16:11:06;98411.97;;;5.99
11926;BMP180;6022;48.768;18.608;2023-01-10T16:13:34;98418.19;;;5.92
11926;BMP180;6022;48.768;18.608;2023-01-10T16:16:17;98418.31;;;5.89
11926;BMP180;6022;48.768;18.608;2023-01-10T16:18:54;98420.78;;;5.90
11926;BMP180;6022;48.768;18.608;2023-01-10T16:21:41;98419.34;;;5.85
11926;BMP180;6022;48.768;18.608;2023-01-10T16:24:40;98426.97;;;5.83
11926;BMP180;6022;48.768;18.608;2023-01-10T16:27:09;98437.09;;;5.82
11926;BMP180;6022;48.768;18.608;2023-01-10T16:29:37;98446.28;;;5.83
11926;BMP180;6022;48.768;18.608;2023-01-10T16:32:13;98450.56;;;5.81
11926;BMP180;6022;48.768;18.608;2023-01-10T16:34:40;98455.09;;;5.91
11926;BMP180;6022;48.768;18.608;2023-01-10T16:37:08;98451.03;;;5.89